createdAt,value
2019-02-17T00:02:02.437Z,17.97
2019-02-17T00:04:30.720Z,15.77
2019-02-17T00:06:59.223Z,16.87
2019-02-17T00:09:27.584Z,18.33
2019-02-17T00:11:55.974Z,17.33
2019-02-17T00:14:24.443Z,16.73
2019-02-17T00:16:52.792Z,16.20
2019-02-17T00:19:21.099Z,18.47
2019-02-17T00:21:49.405Z,18.33
2019-02-17T00:24:17.720Z,18.43
2019-02-17T00:26:45.999Z,17.83
2019-02-17T00:29:14.312Z,16.90
2019-02-17T00:31:42.601Z,16.63
2019-02-17T00:34:10.903Z,17.70
2019-02-17T00:36:39.183Z,18.63
2019-02-17T00:39:07.502Z,19.93
2019-02-17T00:41:35.862Z,19.50
2019-02-17T00:44:04.240Z,19.53
2019-02-17T00:46:32.553Z,16.67
2019-02-17T00:49:01.428Z,18.10
2019-02-17T00:51:29.824Z,18.27
2019-02-17T00:53:58.134Z,18.87
2019-02-17T00:56:26.420Z,19.10
2019-02-17T00:58:54.747Z,18.80
2019-02-17T01:01:23.031Z,18.50
2019-02-17T01:03:51.314Z,18.47
2019-02-17T01:06:19.620Z,19.40
2019-02-17T01:08:47.891Z,20.40
2019-02-17T01:11:16.208Z,19.63
2019-02-17T01:13:44.524Z,19.70
2019-02-17T01:16:12.843Z,20.37
2019-02-17T01:18:41.191Z,20.23
2019-02-17T01:21:09.517Z,19.57
2019-02-17T01:23:37.902Z,19.07
2019-02-17T01:26:06.179Z,18.80
2019-02-17T01:28:34.491Z,18.40
2019-02-17T01:31:02.851Z,19.33
2019-02-17T01:33:31.209Z,17.57
2019-02-17T01:35:59.588Z,17.07
2019-02-17T01:38:27.891Z,18.93
2019-02-17T01:40:56.248Z,20.87
2019-02-17T01:43:24.562Z,20.97
2019-02-17T01:45:52.836Z,20.50
2019-02-17T01:48:21.151Z,22.70
2019-02-17T01:50:49.535Z,23.90
2019-02-17T01:53:17.843Z,26.23
2019-02-17T01:55:47.034Z,24.37
2019-02-17T01:58:15.444Z,23.73
2019-02-17T02:00:43.859Z,23.93
2019-02-17T02:03:12.270Z,20.97
2019-02-17T02:05:40.550Z,22.47
2019-02-17T02:08:08.834Z,23.33
2019-02-17T02:10:37.145Z,26.67
2019-02-17T02:13:05.469Z,23.03
2019-02-17T02:15:33.784Z,22.17
2019-02-17T02:18:02.139Z,21.70
2019-02-17T02:20:30.420Z,21.03
2019-02-17T02:22:58.731Z,21.23
2019-02-17T02:25:27.016Z,20.10
2019-02-17T02:27:55.327Z,22.70
2019-02-17T02:30:23.682Z,22.80
2019-02-17T02:32:52.063Z,22.03
2019-02-17T02:35:20.378Z,24.10
2019-02-17T02:37:48.725Z,24.83
2019-02-17T02:40:17.036Z,27.07
2019-02-17T02:42:45.327Z,25.07
2019-02-17T02:45:13.642Z,24.60
2019-02-17T02:47:41.915Z,23.80
2019-02-17T02:50:11.172Z,23.90
2019-02-17T02:52:39.485Z,21.33
2019-02-17T02:55:08.976Z,21.00
2019-02-17T02:57:37.404Z,19.97
2019-02-17T03:00:09.063Z,22.00
2019-02-17T03:02:37.377Z,20.70
2019-02-17T03:05:06.795Z,21.43
2019-02-17T03:07:35.109Z,20.97
2019-02-17T03:10:03.421Z,20.47
2019-02-17T03:12:31.701Z,20.20
2019-02-17T03:15:00.094Z,19.37
2019-02-17T03:17:28.549Z,19.73
2019-02-17T03:19:56.844Z,20.93
2019-02-17T03:22:25.236Z,19.83
2019-02-17T03:24:53.592Z,21.63
2019-02-17T03:27:21.916Z,21.23
2019-02-17T03:29:50.204Z,20.57
2019-02-17T03:32:18.614Z,20.10
2019-02-17T03:34:46.971Z,20.20
2019-02-17T03:37:15.347Z,19.50
2019-02-17T03:39:43.624Z,19.60
2019-02-17T03:42:11.936Z,18.87
2019-02-17T03:44:40.249Z,21.17
2019-02-17T03:47:08.527Z,19.57
2019-02-17T03:49:36.843Z,21.27
2019-02-17T03:52:05.126Z,22.30
2019-02-17T03:54:33.431Z,22.13
2019-02-17T03:57:01.746Z,21.37
2019-02-17T03:59:30.101Z,22.93
2019-02-17T04:01:58.419Z,21.53
2019-02-17T04:04:26.788Z,21.60
2019-02-17T04:06:55.110Z,21.50
2019-02-17T04:09:23.475Z,20.40
2019-02-17T04:11:51.832Z,19.83
2019-02-17T04:14:20.212Z,19.50
2019-02-17T04:16:48.569Z,18.73
2019-02-17T04:19:16.882Z,18.77
2019-02-17T04:21:45.489Z,19.43
2019-02-17T04:24:13.836Z,18.93
2019-02-17T04:26:42.116Z,20.07
2019-02-17T04:29:10.445Z,19.23
2019-02-17T04:31:38.804Z,20.43
2019-02-17T04:34:07.082Z,20.30
2019-02-17T04:36:35.395Z,18.87
2019-02-17T04:39:05.107Z,17.07
2019-02-17T04:41:33.415Z,17.33
2019-02-17T04:44:01.800Z,17.37
2019-02-17T04:46:30.178Z,17.07
2019-02-17T04:48:58.562Z,17.20
2019-02-17T04:51:26.841Z,18.20
2019-02-17T04:53:55.148Z,19.13
2019-02-17T04:56:23.429Z,21.20
2019-02-17T04:58:51.741Z,22.30
2019-02-17T05:01:20.018Z,21.97
2019-02-17T05:03:48.328Z,20.97
2019-02-17T05:06:16.604Z,21.27
2019-02-17T05:08:44.915Z,20.57
2019-02-17T05:11:13.195Z,20.37
2019-02-17T05:13:41.513Z,21.43
2019-02-17T05:16:09.891Z,20.63
2019-02-17T05:18:38.176Z,20.20
2019-02-17T05:21:06.571Z,22.10
2019-02-17T05:23:34.929Z,20.50
2019-02-17T05:26:03.648Z,20.00
2019-02-17T05:28:31.975Z,19.50
2019-02-17T05:31:00.291Z,20.67
2019-02-17T05:33:28.650Z,20.73
2019-02-17T05:35:57.033Z,18.40
2019-02-17T05:38:25.341Z,20.17
2019-02-17T05:40:53.621Z,21.07
2019-02-17T05:43:22.008Z,20.60
2019-02-17T05:45:50.356Z,18.43
2019-02-17T05:48:18.735Z,19.53
2019-02-17T05:50:47.128Z,18.93
2019-02-17T05:53:15.489Z,19.60
2019-02-17T05:55:43.840Z,21.43
2019-02-17T05:58:12.152Z,19.93
2019-02-17T06:00:40.700Z,19.17
2019-02-17T06:03:09.079Z,18.13
2019-02-17T06:05:37.404Z,17.23
2019-02-17T06:08:05.760Z,18.13
2019-02-17T06:10:34.070Z,18.53
2019-02-17T06:13:02.457Z,20.60
2019-02-17T06:15:30.765Z,19.00
2019-02-17T06:17:59.072Z,17.47
2019-02-17T06:20:27.353Z,18.00
2019-02-17T06:22:55.736Z,17.93
2019-02-17T06:25:24.121Z,19.23
2019-02-17T06:27:52.423Z,20.17
2019-02-17T06:30:20.735Z,21.03
2019-02-17T06:32:49.021Z,20.33
2019-02-17T06:35:17.399Z,22.27
2019-02-17T06:37:45.708Z,20.27
2019-02-17T06:40:13.988Z,21.50
2019-02-17T06:42:42.384Z,21.00
2019-02-17T06:45:10.678Z,19.73
2019-02-17T06:47:38.956Z,21.80
2019-02-17T06:50:09.813Z,23.13
2019-02-17T06:52:38.109Z,22.73
2019-02-17T06:55:10.744Z,23.87
2019-02-17T06:57:40.736Z,21.53
2019-02-17T07:00:14.823Z,23.07
2019-02-17T07:02:43.178Z,22.53
2019-02-17T07:05:31.302Z,22.97
2019-02-17T07:07:59.595Z,22.73
2019-02-17T07:10:27.907Z,24.03
2019-02-17T07:12:56.210Z,22.67
2019-02-17T07:15:24.489Z,23.30
2019-02-17T07:17:52.810Z,23.43
2019-02-17T07:20:21.156Z,26.93
2019-02-17T07:22:49.483Z,23.77
2019-02-17T07:25:17.767Z,24.47
2019-02-17T07:27:46.042Z,22.93
2019-02-17T07:30:14.361Z,21.83
2019-02-17T07:32:42.743Z,20.23
2019-02-17T07:35:11.053Z,19.90
2019-02-17T07:37:39.328Z,19.60
2019-02-17T07:40:07.894Z,20.93
2019-02-17T07:42:36.228Z,19.03
2019-02-17T07:45:06.607Z,19.23
2019-02-17T07:47:34.913Z,20.93
2019-02-17T07:50:03.461Z,18.77
2019-02-17T07:52:31.776Z,19.03
2019-02-17T07:55:00.055Z,20.07
2019-02-17T07:57:28.428Z,20.60
2019-02-17T07:59:56.811Z,20.57
2019-02-17T08:02:25.119Z,20.40
2019-02-17T08:04:53.393Z,20.60
2019-02-17T08:07:21.700Z,20.30
2019-02-17T08:09:50.008Z,20.27
2019-02-17T08:12:18.316Z,21.50
2019-02-17T08:14:46.593Z,20.77
2019-02-17T08:17:14.975Z,20.57
2019-02-17T08:19:43.280Z,21.60
2019-02-17T08:22:11.587Z,21.17
2019-02-17T08:24:39.901Z,21.83
2019-02-17T08:27:08.213Z,20.57
2019-02-17T08:29:36.578Z,21.37
2019-02-17T08:32:04.962Z,20.67
2019-02-17T08:34:33.250Z,21.17
2019-02-17T08:37:01.843Z,19.60
2019-02-17T08:39:30.203Z,20.40
2019-02-17T08:41:58.479Z,21.53
2019-02-17T08:44:26.770Z,22.13
2019-02-17T08:46:55.153Z,21.10
2019-02-17T08:49:23.536Z,19.47
2019-02-17T08:51:51.815Z,21.47
2019-02-17T08:54:20.106Z,23.40
2019-02-17T08:56:48.474Z,27.97
2019-02-17T08:59:16.783Z,22.43
2019-02-17T09:01:45.065Z,21.13
2019-02-17T09:04:13.371Z,19.90
2019-02-17T09:06:41.654Z,21.50
2019-02-17T09:09:09.961Z,20.93
2019-02-17T09:11:38.244Z,19.83
2019-02-17T09:14:06.628Z,19.57
2019-02-17T09:16:35.008Z,19.83
2019-02-17T09:19:04.607Z,20.10
2019-02-17T09:21:32.979Z,19.57
2019-02-17T09:24:01.255Z,19.63
2019-02-17T09:26:29.763Z,22.50
2019-02-17T09:28:58.219Z,19.80
2019-02-17T09:31:26.544Z,20.60
2019-02-17T09:33:54.824Z,19.93
2019-02-17T09:36:23.104Z,19.83
2019-02-17T09:38:51.431Z,21.70
2019-02-17T09:41:19.813Z,19.77
2019-02-17T09:43:48.181Z,21.90
2019-02-17T09:46:16.540Z,20.70
2019-02-17T09:48:44.848Z,20.57
2019-02-17T09:51:13.123Z,22.80
2019-02-17T09:53:41.453Z,22.03
2019-02-17T09:56:09.748Z,22.80
2019-02-17T09:58:38.105Z,21.77
2019-02-17T10:01:06.415Z,21.10
2019-02-17T10:03:34.708Z,20.70
2019-02-17T10:06:03.029Z,19.70
2019-02-17T10:08:31.350Z,20.17
2019-02-17T10:10:59.739Z,20.83
2019-02-17T10:13:28.064Z,20.03
2019-02-17T10:15:56.379Z,21.50
2019-02-17T10:18:24.691Z,19.63
2019-02-17T10:20:52.970Z,20.90
2019-02-17T10:23:22.264Z,22.53
2019-02-17T10:25:50.614Z,21.47
2019-02-17T10:28:19.009Z,20.40
2019-02-17T10:30:47.384Z,20.63
2019-02-17T10:33:15.780Z,19.47
2019-02-17T10:35:44.086Z,20.57
2019-02-17T10:38:12.483Z,19.30
2019-02-17T10:40:40.772Z,20.87
2019-02-17T10:43:09.176Z,21.20
2019-02-17T10:45:37.466Z,20.53
2019-02-17T10:48:05.866Z,21.97
2019-02-17T10:50:34.257Z,20.73
2019-02-17T10:53:02.577Z,20.60
2019-02-17T10:55:30.876Z,21.17
2019-02-17T10:57:59.260Z,20.17
2019-02-17T11:00:29.216Z,19.80
2019-02-17T11:03:06.106Z,19.37
2019-02-17T11:05:34.425Z,19.43
2019-02-17T11:08:02.796Z,19.93
2019-02-17T11:10:31.175Z,19.80
2019-02-17T11:12:59.487Z,19.77
2019-02-17T11:15:27.803Z,18.67
2019-02-17T11:17:56.095Z,18.27
2019-02-17T11:20:24.417Z,19.93
2019-02-17T11:22:52.696Z,18.90
2019-02-17T11:25:21.088Z,19.60
2019-02-17T11:27:49.412Z,18.87
2019-02-17T11:30:19.477Z,19.40
2019-02-17T11:32:57.171Z,19.67
2019-02-17T11:35:17.807Z,18.80
2019-02-17T11:37:46.132Z,19.40
2019-02-17T11:40:14.416Z,18.87
2019-02-17T11:42:42.806Z,17.77
2019-02-17T11:45:13.574Z,20.00
2019-02-17T11:47:41.896Z,17.27
2019-02-17T11:50:10.181Z,17.00
2019-02-17T11:52:38.498Z,16.67
2019-02-17T11:55:12.392Z,15.60
2019-02-17T11:57:40.724Z,15.77
2019-02-17T12:00:17.203Z,15.70
2019-02-17T12:02:45.515Z,14.70
2019-02-17T12:05:13.805Z,15.50
2019-02-17T12:07:42.190Z,13.63
2019-02-17T12:10:11.455Z,14.60
2019-02-17T12:12:39.919Z,13.97
2019-02-17T12:15:10.923Z,15.23
2019-02-17T12:17:39.207Z,15.60
2019-02-17T12:20:23.016Z,14.70
2019-02-17T12:22:52.943Z,15.77
2019-02-17T12:25:22.911Z,14.93
2019-02-17T12:27:52.916Z,14.27
2019-02-17T12:30:21.403Z,15.30
2019-02-17T12:32:49.743Z,15.60
2019-02-17T12:35:18.064Z,14.93
2019-02-17T12:37:47.387Z,16.07
2019-02-17T12:40:15.977Z,16.13
2019-02-17T12:42:44.307Z,15.43
2019-02-17T12:45:16.240Z,17.40
2019-02-17T12:47:43.564Z,16.37
2019-02-17T12:50:12.171Z,16.23
2019-02-17T12:52:47.033Z,16.03
2019-02-17T12:55:10.576Z,16.03
2019-02-17T12:57:38.857Z,15.73
2019-02-17T13:00:13.460Z,15.93
2019-02-17T13:02:41.739Z,17.43
2019-02-17T13:05:10.463Z,15.63
2019-02-17T13:07:38.789Z,16.10
2019-02-17T13:10:14.047Z,15.90
2019-02-17T13:12:42.336Z,15.33
2019-02-17T13:15:13.040Z,14.67
2019-02-17T13:17:50.065Z,16.17
2019-02-17T13:20:18.155Z,15.80
2019-02-17T13:22:46.476Z,15.27
2019-02-17T13:25:18.328Z,15.53
2019-02-17T13:27:46.653Z,15.33
2019-02-17T13:30:20.850Z,15.30
2019-02-17T13:32:49.167Z,15.60
2019-02-17T13:35:17.456Z,14.63
2019-02-17T13:37:45.788Z,14.73
2019-02-17T13:40:14.368Z,15.23
2019-02-17T13:42:42.674Z,14.70
2019-02-17T13:45:18.161Z,14.47
2019-02-17T13:47:46.561Z,15.77
2019-02-17T13:50:15.994Z,15.40
2019-02-17T13:52:44.303Z,14.87
2019-02-17T13:55:12.629Z,16.03
2019-02-17T13:57:40.990Z,15.17
2019-02-17T14:00:15.080Z,15.33
2019-02-17T14:02:43.371Z,14.57
2019-02-17T14:05:11.695Z,14.53
2019-02-17T14:07:39.989Z,15.77
2019-02-17T14:10:10.662Z,15.70
2019-02-17T14:12:38.956Z,15.53
2019-02-17T14:15:15.651Z,14.90
2019-02-17T14:17:43.946Z,15.53
2019-02-17T14:20:12.343Z,14.93
2019-02-17T14:22:40.701Z,15.00
2019-02-17T14:25:11.100Z,14.77
2019-02-17T14:27:39.716Z,16.40
2019-02-17T14:30:16.351Z,16.27
2019-02-17T14:32:44.657Z,16.50
2019-02-17T14:35:13.051Z,15.97
2019-02-17T14:37:41.376Z,16.17
2019-02-17T14:40:13.416Z,17.23
2019-02-17T14:42:41.769Z,17.07
2019-02-17T14:45:14.639Z,16.23
2019-02-17T14:47:43.034Z,16.80
2019-02-17T14:50:11.643Z,17.27
2019-02-17T14:52:39.960Z,17.30
2019-02-17T14:55:09.875Z,17.20
2019-02-17T14:57:38.283Z,16.33
2019-02-17T15:00:12.192Z,16.60
2019-02-17T15:02:40.748Z,15.90
2019-02-17T15:05:10.465Z,17.17
2019-02-17T15:07:38.797Z,17.70
2019-02-17T15:10:11.787Z,17.07
2019-02-17T15:12:40.183Z,17.73
2019-02-17T15:15:13.064Z,16.90
2019-02-17T15:17:41.428Z,17.30
2019-02-17T15:20:18.523Z,17.63
2019-02-17T15:22:46.879Z,18.40
2019-02-17T15:25:15.195Z,16.83
2019-02-17T15:27:43.535Z,18.03
2019-02-17T15:30:13.840Z,17.27
2019-02-17T15:32:42.234Z,16.03
2019-02-17T15:35:10.535Z,17.80
2019-02-17T15:37:38.924Z,16.93
2019-02-17T15:40:10.256Z,18.07
2019-02-17T15:42:38.648Z,18.07
2019-02-17T15:45:14.658Z,16.83
2019-02-17T15:47:43.142Z,17.43
2019-02-17T15:50:14.792Z,17.13
2019-02-17T15:52:43.167Z,16.90
2019-02-17T15:55:12.684Z,17.70
2019-02-17T15:57:41.004Z,16.40
2019-02-17T16:00:19.482Z,16.97
2019-02-17T16:02:48.043Z,16.27
2019-02-17T16:05:16.444Z,17.63
2019-02-17T16:07:44.820Z,16.67
2019-02-17T16:10:14.966Z,17.40
2019-02-17T16:12:43.323Z,17.23
2019-02-17T16:15:23.914Z,17.03
2019-02-17T16:17:52.322Z,16.83
2019-02-17T16:20:20.704Z,17.07
2019-02-17T16:22:49.066Z,16.10
2019-02-17T16:25:17.526Z,16.57
2019-02-17T16:27:46.505Z,16.07
2019-02-17T16:30:19.864Z,15.93
2019-02-17T16:32:48.259Z,15.43
2019-02-17T16:35:16.585Z,16.60
2019-02-17T16:37:44.945Z,18.33
2019-02-17T16:40:14.875Z,19.73
2019-02-17T16:42:43.237Z,19.83
2019-02-17T16:45:13.054Z,18.63
2019-02-17T16:47:41.728Z,17.63
2019-02-17T16:50:16.167Z,19.43
2019-02-17T16:52:44.497Z,18.80
2019-02-17T16:55:12.823Z,19.17
2019-02-17T16:57:41.222Z,19.00
2019-02-17T17:00:13.893Z,19.70
2019-02-17T17:02:42.230Z,21.07
2019-02-17T17:05:11.060Z,23.23
2019-02-17T17:07:39.458Z,19.00
2019-02-17T17:10:07.811Z,20.97
2019-02-17T17:12:36.213Z,20.63
2019-02-17T17:15:05.943Z,21.70
2019-02-17T17:17:35.620Z,21.47
2019-02-17T17:20:05.829Z,22.13
2019-02-17T17:22:35.424Z,22.17
2019-02-17T17:25:05.180Z,22.47
2019-02-17T17:27:33.534Z,23.90
2019-02-17T17:30:01.924Z,24.47
2019-02-17T17:32:30.243Z,23.70
2019-02-17T17:34:59.368Z,23.20
2019-02-17T17:37:27.927Z,21.10
2019-02-17T17:39:56.210Z,21.00
2019-02-17T17:42:24.540Z,22.97
2019-02-17T17:44:52.891Z,21.33
2019-02-17T17:47:21.279Z,22.03
2019-02-17T17:49:49.565Z,22.03
2019-02-17T17:52:17.890Z,22.40
2019-02-17T17:54:46.164Z,19.20
2019-02-17T17:57:14.449Z,17.13
2019-02-17T17:59:42.883Z,17.00
2019-02-17T18:02:11.246Z,17.83
2019-02-17T18:04:41.110Z,15.90
2019-02-17T18:07:09.537Z,16.27
2019-02-17T18:09:37.860Z,16.47
2019-02-17T18:12:06.230Z,15.53
2019-02-17T18:14:34.738Z,17.47
2019-02-17T18:17:03.099Z,15.33
2019-02-17T18:19:31.389Z,15.80
2019-02-17T18:21:59.763Z,15.13
2019-02-17T18:24:28.052Z,14.93
2019-02-17T18:26:56.428Z,14.30
2019-02-17T18:29:24.716Z,16.10
2019-02-17T18:31:53.103Z,16.50
2019-02-17T18:34:21.425Z,15.60
2019-02-17T18:36:49.699Z,16.10
2019-02-17T18:39:18.008Z,15.57
2019-02-17T18:41:46.283Z,16.07
2019-02-17T18:44:14.592Z,14.93
2019-02-17T18:46:42.884Z,15.07
2019-02-17T18:49:11.207Z,16.67
2019-02-17T18:51:41.678Z,16.00
2019-02-17T18:54:09.491Z,16.20
2019-02-17T18:56:37.884Z,15.63
2019-02-17T18:59:06.169Z,14.50
2019-02-17T19:01:34.480Z,15.57
2019-02-17T19:04:02.799Z,15.73
2019-02-17T19:06:31.081Z,15.33
2019-02-17T19:08:59.388Z,15.90
2019-02-17T19:11:27.701Z,16.10
2019-02-17T19:13:55.982Z,16.23
2019-02-17T19:16:24.372Z,16.60
2019-02-17T19:18:53.542Z,17.07
2019-02-17T19:21:21.989Z,16.47
2019-02-17T19:23:50.296Z,16.30
2019-02-17T19:26:18.652Z,17.03
2019-02-17T19:28:46.956Z,15.67
2019-02-17T19:31:15.232Z,16.53
2019-02-17T19:33:43.538Z,15.97
2019-02-17T19:36:11.823Z,16.37
2019-02-17T19:38:40.147Z,16.27
2019-02-17T19:41:08.435Z,16.77
2019-02-17T19:43:36.748Z,17.83
2019-02-17T19:46:05.112Z,15.40
2019-02-17T19:48:33.442Z,16.13
2019-02-17T19:51:01.814Z,16.97
2019-02-17T19:53:31.850Z,15.43
2019-02-17T19:56:00.169Z,16.83
2019-02-17T19:58:28.559Z,16.40
2019-02-17T20:00:57.812Z,16.00
2019-02-17T20:03:40.106Z,16.63
2019-02-17T20:06:09.762Z,15.63
2019-02-17T20:08:38.154Z,16.10
2019-02-17T20:11:06.563Z,16.80
2019-02-17T20:13:34.951Z,16.70
2019-02-17T20:16:03.255Z,15.97
2019-02-17T20:18:31.656Z,16.80
2019-02-17T20:21:00.015Z,16.23
2019-02-17T20:23:28.632Z,15.80
2019-02-17T20:25:57.958Z,16.90
2019-02-17T20:28:40.727Z,15.53
2019-02-17T20:30:56.468Z,16.00
2019-02-17T20:33:24.753Z,18.07
2019-02-17T20:36:02.445Z,15.83
2019-02-17T20:38:23.271Z,16.93
2019-02-17T20:40:51.671Z,16.57
2019-02-17T20:43:20.016Z,16.73
2019-02-17T20:45:48.372Z,17.37
2019-02-17T20:48:16.688Z,17.70
2019-02-17T20:50:44.984Z,16.97
2019-02-17T20:53:13.393Z,16.77
2019-02-17T20:55:41.712Z,15.83
2019-02-17T20:58:09.995Z,15.63
2019-02-17T21:00:38.375Z,15.93
2019-02-17T21:03:06.655Z,16.63
2019-02-17T21:05:35.032Z,15.50
2019-02-17T21:08:03.313Z,16.00
2019-02-17T21:10:31.691Z,15.90
2019-02-17T21:13:00.039Z,17.10
2019-02-17T21:15:28.424Z,15.33
2019-02-17T21:17:56.733Z,16.10
2019-02-17T21:20:25.395Z,16.33
2019-02-17T21:22:53.709Z,16.07
2019-02-17T21:25:22.101Z,14.93
2019-02-17T21:27:50.379Z,14.20
2019-02-17T21:30:19.550Z,14.30
2019-02-17T21:32:48.753Z,14.87
2019-02-17T21:35:17.479Z,13.47
2019-02-17T21:37:45.859Z,14.87
2019-02-17T21:40:14.417Z,14.30
2019-02-17T21:42:42.811Z,14.97
2019-02-17T21:45:12.388Z,14.13
2019-02-17T21:47:40.781Z,15.50
2019-02-17T21:50:13.761Z,15.13
2019-02-17T21:52:42.403Z,14.13
2019-02-17T21:55:14.623Z,14.50
2019-02-17T21:57:42.959Z,14.20
2019-02-17T22:00:15.172Z,15.20
2019-02-17T22:02:43.483Z,14.93
2019-02-17T22:05:11.769Z,13.73
2019-02-17T22:07:40.156Z,14.20
2019-02-17T22:10:11.299Z,14.43
2019-02-17T22:12:40.392Z,14.57
2019-02-17T22:15:17.311Z,14.03
2019-02-17T22:17:45.621Z,14.13
2019-02-17T22:20:13.939Z,13.43
2019-02-17T22:22:42.289Z,13.77
2019-02-17T22:25:10.671Z,12.93
2019-02-17T22:27:42.031Z,12.77
2019-02-17T22:30:14.561Z,13.80
2019-02-17T22:32:42.866Z,13.50
2019-02-17T22:35:11.155Z,13.03
2019-02-17T22:37:39.532Z,12.73
2019-02-17T22:40:11.041Z,12.90
2019-02-17T22:42:39.359Z,12.27
2019-02-17T22:45:09.811Z,13.47
2019-02-17T22:47:38.276Z,13.20
2019-02-17T22:50:09.355Z,14.03
2019-02-17T22:52:37.683Z,12.87
2019-02-17T22:55:08.914Z,13.33
2019-02-17T22:57:37.259Z,14.60
2019-02-17T23:00:11.663Z,15.37
2019-02-17T23:02:39.975Z,15.03
2019-02-17T23:05:08.794Z,14.97
2019-02-17T23:07:37.099Z,15.23
2019-02-17T23:10:07.988Z,14.93
2019-02-17T23:12:36.415Z,15.13
2019-02-17T23:15:06.531Z,14.57
2019-02-17T23:17:34.963Z,14.73
2019-02-17T23:20:04.410Z,14.63
2019-02-17T23:22:32.901Z,14.83
2019-02-17T23:25:01.281Z,14.80
2019-02-17T23:27:29.562Z,15.30
2019-02-17T23:29:57.975Z,13.60
2019-02-17T23:32:26.281Z,14.50
2019-02-17T23:34:54.587Z,14.77
2019-02-17T23:37:22.905Z,14.97
2019-02-17T23:39:51.183Z,13.43
2019-02-17T23:42:19.495Z,14.43
2019-02-17T23:44:47.774Z,14.47
2019-02-17T23:47:16.158Z,13.93
2019-02-17T23:49:44.431Z,14.10
2019-02-17T23:52:12.730Z,14.60
2019-02-17T23:54:41.012Z,14.13
2019-02-17T23:57:09.320Z,13.70
2019-02-17T23:59:37.606Z,14.27
